createdAt,value
2022-11-30T00:01:57.725Z,41.25
2022-11-30T00:04:27.735Z,52.45
2022-11-30T00:07:01.894Z,47.33
2022-11-30T00:09:32.438Z,49.67
2022-11-30T00:12:08.678Z,52.88
2022-11-30T00:14:44.267Z,50.20
2022-11-30T00:17:19.511Z,51.13
2022-11-30T00:19:57.820Z,49.65
2022-11-30T00:22:38.265Z,53.33
2022-11-30T00:25:09.523Z,54.92
2022-11-30T00:30:11.062Z,55.85
2022-11-30T00:32:40.881Z,56.10
2022-11-30T00:35:10.786Z,55.53
2022-11-30T00:37:43.730Z,60.70
2022-11-30T00:40:14.435Z,60.10
2022-11-30T00:42:43.926Z,56.90
2022-11-30T00:45:13.798Z,56.63
2022-11-30T00:47:43.342Z,56.92
2022-11-30T00:50:14.107Z,56.13
2022-11-30T00:52:46.368Z,62.03
2022-11-30T00:55:15.940Z,65.30
2022-11-30T00:57:45.764Z,57.22
2022-11-30T01:00:16.066Z,66.05
2022-11-30T01:02:46.184Z,59.28
2022-11-30T01:05:16.142Z,61.47
2022-11-30T01:07:48.877Z,56.00
2022-11-30T01:10:19.022Z,58.13
2022-11-30T01:12:48.873Z,59.47
2022-11-30T01:15:18.767Z,58.85
2022-11-30T01:17:48.254Z,53.85
2022-11-30T01:20:17.986Z,59.63
2022-11-30T01:22:50.800Z,67.72
2022-11-30T01:25:20.765Z,63.63
2022-11-30T01:27:51.339Z,62.45
2022-11-30T01:30:21.210Z,57.15
2022-11-30T01:32:50.960Z,61.63
2022-11-30T01:35:21.009Z,58.05
2022-11-30T01:37:53.546Z,61.22
2022-11-30T01:40:23.356Z,57.42
2022-11-30T01:42:52.937Z,55.75
2022-11-30T01:45:22.706Z,53.45
2022-11-30T01:47:54.228Z,54.85
2022-11-30T01:50:25.604Z,63.15
2022-11-30T01:52:58.668Z,55.70
2022-11-30T01:55:30.047Z,48.65
2022-11-30T01:58:00.571Z,53.67
2022-11-30T02:00:30.208Z,54.78
2022-11-30T02:03:02.267Z,53.83
2022-11-30T02:05:31.829Z,53.22
2022-11-30T02:08:04.064Z,51.25
2022-11-30T02:10:34.614Z,54.33
2022-11-30T02:13:23.385Z,56.00
2022-11-30T02:15:57.050Z,53.38
2022-11-30T02:18:28.603Z,52.53
2022-11-30T02:21:08.733Z,52.28
2022-11-30T02:24:14.413Z,49.85
2022-11-30T02:27:01.382Z,52.83
2022-11-30T02:29:34.806Z,48.53
2022-11-30T02:32:07.601Z,57.95
2022-11-30T02:34:38.029Z,50.58
2022-11-30T02:37:08.285Z,56.63
2022-11-30T02:39:37.917Z,53.07
2022-11-30T02:42:09.266Z,55.95
2022-11-30T02:44:41.839Z,56.17
2022-11-30T02:47:18.445Z,53.05
2022-11-30T02:49:51.991Z,53.75
2022-11-30T02:52:22.300Z,47.60
2022-11-30T02:54:52.024Z,52.33
2022-11-30T02:57:21.864Z,55.03
2022-11-30T02:59:54.181Z,52.40
2022-11-30T03:02:23.936Z,51.85
2022-11-30T03:04:53.541Z,51.78
2022-11-30T03:07:23.229Z,51.50
2022-11-30T03:09:53.190Z,52.75
2022-11-30T03:12:22.714Z,57.63
2022-11-30T03:14:55.767Z,53.42
2022-11-30T03:17:25.272Z,55.90
2022-11-30T03:19:54.870Z,52.85
2022-11-30T03:22:24.437Z,55.95
2022-11-30T03:24:54.010Z,58.72
2022-11-30T03:27:23.913Z,55.22
2022-11-30T03:29:56.046Z,55.28
2022-11-30T03:32:25.881Z,54.13
2022-11-30T03:34:55.625Z,57.83
2022-11-30T03:37:25.089Z,52.85
2022-11-30T03:39:58.091Z,59.90
2022-11-30T03:42:28.100Z,51.47
2022-11-30T03:45:00.179Z,55.50
2022-11-30T03:47:29.714Z,55.92
2022-11-30T03:49:59.406Z,51.97
2022-11-30T03:52:28.870Z,57.88
2022-11-30T03:54:58.321Z,57.40
2022-11-30T03:57:27.781Z,54.25
2022-11-30T03:59:59.809Z,55.58
2022-11-30T04:02:29.307Z,46.40
2022-11-30T04:04:58.780Z,47.50
2022-11-30T04:07:28.596Z,47.17
2022-11-30T04:09:58.261Z,42.83
2022-11-30T04:12:27.748Z,43.08
2022-11-30T04:14:59.781Z,45.80
2022-11-30T04:17:29.605Z,50.15
2022-11-30T04:19:59.110Z,45.60
2022-11-30T04:22:28.597Z,47.22
2022-11-30T04:24:58.056Z,60.42
2022-11-30T04:27:27.600Z,51.78
2022-11-30T04:29:57.053Z,52.33
2022-11-30T04:32:29.620Z,46.50
2022-11-30T04:34:59.088Z,43.55
2022-11-30T04:37:28.624Z,46.10
2022-11-30T04:39:58.267Z,46.33
2022-11-30T04:42:27.932Z,43.03
2022-11-30T04:44:57.563Z,48.17
2022-11-30T04:47:29.915Z,44.40
2022-11-30T04:49:59.446Z,42.55
2022-11-30T04:52:29.048Z,39.97
2022-11-30T04:54:58.722Z,42.70
2022-11-30T04:57:28.288Z,42.63
2022-11-30T04:59:57.758Z,43.75
2022-11-30T05:02:31.751Z,36.78
2022-11-30T05:05:01.260Z,38.70
2022-11-30T05:07:30.741Z,41.47
2022-11-30T05:10:00.474Z,41.22
2022-11-30T05:12:30.007Z,38.95
2022-11-30T05:14:59.690Z,39.33
2022-11-30T05:17:31.789Z,36.10
2022-11-30T05:20:01.270Z,36.30
2022-11-30T05:22:30.788Z,34.08
2022-11-30T05:25:00.295Z,31.77
2022-11-30T05:27:29.777Z,38.10
2022-11-30T05:29:59.245Z,34.65
2022-11-30T05:32:31.275Z,34.65
2022-11-30T05:35:00.721Z,29.65
2022-11-30T05:37:30.207Z,28.98
2022-11-30T05:39:59.745Z,30.75
2022-11-30T05:42:29.225Z,28.55
2022-11-30T05:44:58.673Z,32.80
2022-11-30T05:47:30.735Z,29.63
2022-11-30T05:50:00.195Z,31.67
2022-11-30T05:52:29.640Z,30.45
2022-11-30T05:54:59.468Z,28.52
2022-11-30T05:57:28.962Z,29.38
2022-11-30T05:59:58.434Z,33.33
2022-11-30T06:02:28.644Z,33.47
2022-11-30T06:05:00.862Z,30.80
2022-11-30T06:07:30.456Z,34.17
2022-11-30T06:09:59.967Z,34.53
2022-11-30T06:12:29.441Z,34.58
2022-11-30T06:14:58.907Z,36.50
2022-11-30T06:17:28.622Z,33.00
2022-11-30T06:20:00.940Z,32.30
2022-11-30T06:22:30.424Z,32.35
2022-11-30T06:24:59.913Z,31.70
2022-11-30T06:27:32.892Z,31.27
2022-11-30T06:30:02.335Z,32.63
2022-11-30T06:32:31.781Z,30.85
2022-11-30T06:35:03.857Z,29.80
2022-11-30T06:37:36.176Z,33.40
2022-11-30T06:40:07.295Z,30.10
2022-11-30T06:42:37.216Z,28.17
2022-11-30T06:45:07.389Z,29.73
2022-11-30T06:47:36.831Z,28.30
2022-11-30T06:50:10.954Z,28.30
2022-11-30T06:52:40.450Z,28.65
2022-11-30T06:55:10.945Z,27.05
2022-11-30T06:57:40.445Z,28.27
2022-11-30T07:00:12.549Z,27.63
2022-11-30T07:02:42.155Z,27.33
2022-11-30T07:05:14.397Z,32.38
2022-11-30T07:07:43.986Z,27.80
2022-11-30T07:10:19.788Z,28.10
2022-11-30T07:12:49.699Z,30.75
2022-11-30T07:15:19.269Z,31.10
2022-11-30T07:17:48.752Z,26.95
2022-11-30T07:20:21.113Z,29.92
2022-11-30T07:22:50.882Z,27.67
2022-11-30T07:25:32.809Z,31.63
2022-11-30T07:28:02.268Z,28.58
2022-11-30T07:30:33.680Z,31.45
2022-11-30T07:33:03.178Z,31.13
2022-11-30T07:35:35.296Z,27.38
2022-11-30T07:38:09.595Z,29.20
2022-11-30T07:40:39.447Z,28.58
2022-11-30T07:43:08.916Z,24.17
2022-11-30T07:45:38.427Z,25.83
2022-11-30T07:48:09.801Z,25.50
2022-11-30T07:50:41.831Z,24.67
2022-11-30T07:53:11.285Z,23.98
2022-11-30T07:55:40.729Z,23.23
2022-11-30T07:58:15.838Z,22.42
2022-11-30T08:00:51.977Z,21.95
2022-11-30T08:03:21.509Z,21.85
2022-11-30T08:05:53.555Z,18.92
2022-11-30T08:08:23.096Z,21.77
2022-11-30T08:10:52.559Z,19.55
2022-11-30T08:13:22.144Z,20.83
2022-11-30T08:15:52.666Z,19.40
2022-11-30T08:18:22.438Z,20.85
2022-11-30T08:20:59.894Z,22.65
2022-11-30T08:23:30.659Z,22.85
2022-11-30T08:26:00.943Z,23.40
2022-11-30T08:28:31.832Z,21.73
2022-11-30T08:31:03.730Z,22.10
2022-11-30T08:33:33.220Z,21.73
2022-11-30T08:36:11.434Z,21.17
2022-11-30T08:38:41.688Z,22.02
2022-11-30T08:41:11.738Z,23.47
2022-11-30T08:43:41.669Z,23.77
2022-11-30T08:46:42.742Z,23.13
2022-11-30T08:49:20.344Z,23.17
2022-11-30T08:52:16.831Z,23.40
2022-11-30T08:54:46.355Z,24.60
2022-11-30T08:57:20.373Z,22.77
2022-11-30T08:59:50.072Z,22.33
2022-11-30T09:02:20.441Z,23.08
2022-11-30T09:04:51.801Z,26.42
2022-11-30T09:07:23.944Z,25.85
2022-11-30T09:09:53.717Z,24.23
2022-11-30T09:12:23.446Z,26.00
2022-11-30T09:14:57.917Z,25.52
2022-11-30T09:17:28.271Z,26.88
2022-11-30T09:19:57.755Z,26.80
2022-11-30T09:22:30.452Z,27.60
2022-11-30T09:24:59.906Z,27.05
2022-11-30T09:27:30.586Z,24.98
2022-11-30T09:30:00.317Z,27.15
2022-11-30T09:32:30.689Z,23.10
2022-11-30T09:35:00.329Z,25.15
2022-11-30T09:37:32.416Z,24.02
2022-11-30T09:40:02.050Z,26.13
2022-11-30T09:42:36.612Z,24.83
2022-11-30T09:45:07.624Z,24.95
2022-11-30T09:48:05.196Z,26.65
2022-11-30T09:50:36.286Z,26.58
2022-11-30T09:55:42.829Z,26.35
2022-11-30T09:58:24.418Z,27.55
2022-11-30T10:00:53.862Z,27.90
2022-11-30T10:03:23.711Z,27.02
2022-11-30T10:05:55.137Z,29.33
2022-11-30T10:08:34.034Z,27.23
2022-11-30T10:11:15.377Z,27.58
2022-11-30T10:13:51.759Z,28.65
2022-11-30T10:16:24.905Z,27.40
2022-11-30T10:18:56.937Z,30.20
2022-11-30T10:21:36.371Z,27.85
2022-11-30T10:24:18.036Z,27.63
2022-11-30T10:26:51.899Z,25.23
2022-11-30T10:29:22.306Z,26.35
2022-11-30T10:31:52.781Z,24.80
2022-11-30T10:34:23.387Z,27.05
2022-11-30T10:36:56.441Z,24.05
2022-11-30T10:39:31.418Z,25.75
2022-11-30T10:42:07.441Z,27.95
2022-11-30T10:44:39.945Z,26.17
2022-11-30T10:47:13.141Z,24.35
2022-11-30T10:49:43.679Z,23.40
2022-11-30T10:52:14.725Z,21.50
2022-11-30T10:54:57.986Z,23.95
2022-11-30T10:57:33.846Z,26.48
2022-11-30T11:00:09.686Z,24.13
2022-11-30T11:03:04.507Z,22.63
2022-11-30T11:05:48.897Z,23.10
2022-11-30T11:08:44.645Z,21.90
2022-11-30T11:12:17.058Z,21.73
2022-11-30T11:15:25.405Z,21.38
2022-11-30T11:21:53.323Z,22.33
2022-11-30T11:24:31.567Z,23.88
2022-11-30T11:31:23.889Z,19.80
2022-11-30T11:34:51.521Z,21.00
2022-11-30T11:37:34.089Z,19.67
2022-11-30T11:40:22.545Z,21.17
2022-11-30T11:49:39.628Z,19.65
2022-11-30T11:52:44.860Z,20.38
2022-11-30T11:59:32.689Z,21.30
2022-11-30T12:06:18.738Z,21.20
2022-11-30T12:09:12.111Z,20.55
2022-11-30T12:15:27.893Z,19.35
2022-11-30T12:18:23.572Z,18.40
2022-11-30T12:38:06.036Z,19.23
2022-11-30T12:41:40.945Z,16.48
2022-11-30T12:45:09.404Z,17.58
2022-11-30T12:47:59.899Z,15.73
2022-11-30T12:50:52.323Z,15.70
2022-11-30T12:54:24.653Z,16.70
2022-11-30T12:57:45.423Z,15.60
2022-11-30T13:00:16.929Z,15.18
2022-11-30T13:13:03.178Z,13.45
2022-11-30T13:47:50.183Z,12.40
2022-11-30T13:52:01.419Z,12.98
2022-11-30T13:55:20.854Z,12.77
2022-11-30T13:59:24.594Z,15.38
2022-11-30T14:13:29.171Z,16.75
2022-11-30T14:44:53.463Z,22.95
2022-11-30T14:52:23.371Z,27.55
2022-11-30T14:59:16.881Z,27.15
2022-11-30T15:02:15.219Z,26.35
2022-11-30T15:05:01.229Z,25.15
2022-11-30T15:07:56.933Z,23.98
2022-11-30T15:10:38.353Z,25.35
2022-11-30T15:16:53.454Z,24.55
2022-11-30T15:20:02.561Z,22.30
2022-11-30T15:22:37.857Z,22.73
2022-11-30T15:25:48.267Z,25.25
2022-11-30T15:28:36.294Z,25.10
2022-11-30T15:31:17.702Z,23.17
2022-11-30T15:34:06.491Z,23.33
2022-11-30T15:36:51.351Z,25.35
2022-11-30T15:39:41.397Z,25.48
2022-11-30T15:42:20.270Z,24.33
2022-11-30T15:44:58.796Z,22.75
2022-11-30T15:47:49.538Z,23.65
2022-11-30T15:50:43.368Z,22.15
2022-11-30T15:56:38.357Z,22.80
2022-11-30T15:59:08.923Z,21.85
2022-11-30T16:02:02.275Z,22.27
2022-11-30T16:05:08.380Z,21.45
2022-11-30T16:11:03.224Z,21.17
2022-11-30T16:13:54.182Z,22.58
2022-11-30T16:16:28.847Z,22.65
2022-11-30T16:19:02.572Z,25.02
2022-11-30T16:21:50.736Z,22.95
2022-11-30T16:24:23.074Z,24.33
2022-11-30T16:26:58.532Z,20.83
2022-11-30T16:29:49.133Z,21.45
2022-11-30T16:32:30.100Z,22.83
2022-11-30T16:35:02.426Z,20.90
2022-11-30T16:38:01.598Z,23.73
2022-11-30T16:40:38.967Z,24.95
2022-11-30T16:43:12.987Z,22.40
2022-11-30T16:45:44.117Z,22.90
2022-11-30T16:48:14.913Z,22.50
2022-11-30T16:50:50.861Z,21.80
2022-11-30T16:53:39.781Z,22.38
2022-11-30T16:56:31.796Z,24.88
2022-11-30T16:59:23.041Z,25.85
2022-11-30T17:01:59.674Z,24.95
2022-11-30T17:04:43.954Z,30.65
2022-11-30T17:10:03.186Z,29.55
2022-11-30T17:16:08.887Z,30.73
2022-11-30T17:22:48.072Z,28.65
2022-11-30T17:25:49.322Z,32.97
2022-11-30T17:31:02.141Z,31.60
2022-11-30T17:33:34.686Z,37.03
2022-11-30T17:36:08.337Z,32.22
2022-11-30T17:38:40.396Z,34.65
2022-11-30T17:41:20.095Z,33.15
2022-11-30T17:43:58.814Z,31.65
2022-11-30T17:46:33.574Z,32.10
2022-11-30T17:49:04.037Z,33.60
2022-11-30T17:51:36.625Z,33.50
2022-11-30T17:54:18.153Z,32.22
2022-11-30T17:56:56.341Z,33.00
2022-11-30T17:59:52.478Z,26.95
2022-11-30T18:02:40.737Z,28.50
2022-11-30T18:05:16.185Z,29.27
2022-11-30T18:07:54.099Z,30.90
2022-11-30T18:10:39.109Z,32.20
2022-11-30T18:13:18.474Z,33.50
2022-11-30T18:15:52.928Z,39.83
2022-11-30T18:18:42.843Z,39.58
2022-11-30T18:21:18.840Z,36.97
2022-11-30T18:23:48.770Z,32.97
2022-11-30T18:26:19.653Z,28.55
2022-11-30T18:28:49.200Z,28.90
2022-11-30T18:31:21.323Z,29.05
2022-11-30T18:33:50.812Z,27.35
2022-11-30T18:36:20.261Z,27.90
2022-11-30T18:38:49.707Z,29.20
2022-11-30T18:41:19.169Z,24.48
2022-11-30T18:43:48.647Z,26.63
2022-11-30T18:46:20.701Z,30.30
2022-11-30T18:48:51.242Z,30.42
2022-11-30T18:51:21.612Z,36.17
2022-11-30T18:53:51.085Z,27.15
2022-11-30T18:56:21.380Z,24.50
2022-11-30T18:58:50.979Z,29.05
2022-11-30T19:01:23.248Z,28.42
2022-11-30T19:03:53.155Z,34.20
2022-11-30T19:06:24.699Z,27.40
2022-11-30T19:08:54.148Z,26.85
2022-11-30T19:11:23.597Z,25.60
2022-11-30T19:13:55.878Z,23.75
2022-11-30T19:16:28.353Z,23.20
2022-11-30T19:18:57.920Z,21.77
2022-11-30T19:21:27.434Z,23.20
2022-11-30T19:23:56.877Z,23.02
2022-11-30T19:26:27.995Z,22.30
2022-11-30T19:31:29.830Z,21.63
2022-11-30T19:33:59.346Z,21.08
2022-11-30T19:36:30.373Z,21.55
2022-11-30T19:39:00.767Z,18.10
2022-11-30T19:41:30.448Z,19.98
2022-11-30T19:44:04.135Z,18.63
2022-11-30T19:46:36.574Z,17.60
2022-11-30T19:49:07.976Z,17.45
2022-11-30T19:51:37.538Z,15.57
2022-11-30T19:54:07.176Z,18.52
2022-11-30T19:56:38.984Z,17.88
2022-11-30T19:59:08.674Z,19.60
2022-11-30T20:01:40.804Z,19.25
2022-11-30T20:04:10.373Z,17.15
2022-11-30T20:06:40.149Z,17.83
2022-11-30T20:09:10.548Z,15.43
2022-11-30T20:11:40.249Z,16.08
2022-11-30T20:14:09.682Z,16.02
2022-11-30T20:16:41.754Z,16.23
2022-11-30T20:19:11.332Z,15.45
2022-11-30T20:21:41.081Z,14.45
2022-11-30T20:24:11.394Z,15.30
2022-11-30T20:26:42.564Z,16.85
2022-11-30T20:29:15.005Z,23.27
2022-11-30T20:31:47.844Z,18.52
2022-11-30T20:34:17.420Z,17.15
2022-11-30T20:36:46.889Z,26.92
2022-11-30T20:39:16.404Z,25.30
2022-11-30T20:41:46.164Z,34.70
2022-11-30T20:44:16.751Z,24.52
2022-11-30T20:46:48.799Z,41.42
2022-11-30T20:49:21.279Z,56.28
2022-11-30T20:51:50.847Z,47.17
2022-11-30T20:54:20.837Z,23.98
2022-11-30T20:56:51.363Z,27.05
2022-11-30T20:59:26.370Z,22.20
2022-11-30T21:01:58.659Z,23.30
2022-11-30T21:04:28.495Z,22.30
2022-11-30T21:06:57.966Z,22.58
2022-11-30T21:09:27.433Z,20.35
2022-11-30T21:11:56.900Z,20.75
2022-11-30T21:14:26.356Z,18.88
2022-11-30T21:16:58.762Z,20.90
2022-11-30T21:19:28.300Z,18.75
2022-11-30T21:21:59.312Z,19.48
2022-11-30T21:24:28.795Z,20.25
2022-11-30T21:26:58.274Z,18.38
2022-11-30T21:29:27.733Z,19.27
2022-11-30T21:31:59.805Z,18.67
2022-11-30T21:34:29.634Z,19.67
2022-11-30T21:36:59.087Z,19.00
2022-11-30T21:39:28.834Z,20.88
2022-11-30T21:41:58.322Z,19.75
2022-11-30T21:44:27.787Z,21.02
2022-11-30T21:46:59.930Z,20.88
2022-11-30T21:49:29.556Z,19.73
2022-11-30T21:51:59.028Z,19.60
2022-11-30T21:54:28.607Z,17.92
2022-11-30T21:56:58.044Z,19.65
2022-11-30T21:59:27.497Z,19.63
2022-11-30T22:01:59.818Z,18.65
2022-11-30T22:04:29.563Z,18.75
2022-11-30T22:06:59.018Z,19.05
2022-11-30T22:09:28.482Z,19.92
2022-11-30T22:11:58.181Z,21.92
2022-11-30T22:14:27.751Z,23.05
2022-11-30T22:16:59.818Z,22.55
2022-11-30T22:19:29.301Z,21.95
2022-11-30T22:21:58.957Z,24.52
2022-11-30T22:24:28.618Z,23.38
2022-11-30T22:26:58.072Z,21.70
2022-11-30T22:29:28.860Z,24.38
2022-11-30T22:32:00.937Z,21.38
2022-11-30T22:34:30.959Z,27.35
2022-11-30T22:37:00.433Z,23.20
2022-11-30T22:39:29.917Z,24.23
2022-11-30T22:41:59.426Z,25.23
2022-11-30T22:44:28.993Z,24.08
2022-11-30T22:47:01.249Z,26.55
2022-11-30T22:49:30.854Z,24.73
2022-11-30T22:52:00.336Z,23.25
2022-11-30T22:54:29.782Z,26.13
2022-11-30T22:56:59.227Z,26.55
2022-11-30T22:59:28.670Z,23.92
2022-11-30T23:02:00.672Z,24.70
2022-11-30T23:04:30.196Z,23.55
2022-11-30T23:06:59.637Z,22.98
2022-11-30T23:09:29.073Z,20.77
2022-11-30T23:11:58.542Z,25.35
2022-11-30T23:14:28.086Z,22.90
2022-11-30T23:16:57.622Z,24.02
2022-11-30T23:19:29.821Z,21.83
2022-11-30T23:21:59.379Z,20.92
2022-11-30T23:24:28.861Z,26.05
2022-11-30T23:26:58.333Z,24.38
2022-11-30T23:29:27.778Z,24.48
2022-11-30T23:31:57.301Z,25.10
2022-11-30T23:34:29.357Z,24.40
2022-11-30T23:36:58.825Z,29.80
2022-11-30T23:39:28.987Z,26.95
2022-11-30T23:41:59.931Z,28.93
2022-11-30T23:44:29.482Z,29.88
2022-11-30T23:47:00.211Z,27.48
2022-11-30T23:49:32.725Z,26.77
2022-11-30T23:52:02.647Z,27.98
2022-11-30T23:54:32.317Z,27.00
2022-11-30T23:57:01.755Z,27.73
2022-11-30T23:59:31.248Z,27.45
